Aeroporto :
LOGIN :

Iscrizione | Disclaimer

   EN    FR    IT 

 










Sommario :    VFR   VFR Marginale   IFR   IFR Intensivo   IFR Molto Intensivo
Visibilità : 
Base nubi : 
>= 8 km
>= 3000ft
5 / 8 km
1000 / 3000 ft
1500m / 5 km
500 / 1000 ft
800 / 1500m
200 / 500 ft
< 800m
< 200 ft
Simboli :   Temporali  Nebbia  Neve Forte  Precipitazioni Forti  Vento > 20 kt
SIGMETs :   Varie  Temporali  Ghiacco  Turbolenza  Onda orograficha  Ceneri Vulcaniche






- Altitudine del aeroporto : 49 ft
- Codice IATA : SEN


EGMC - Southend

ULTIMO METAR :
  • 241120Z 23023KT 9999 BKN015 11/09 Q1007

METARs OBSOLETI :
  • 241050Z 23023KT 9999 BKN016 11/09 Q1008
  • 241020Z 23023KT 9999 BKN017 11/09 Q1008
  • 240950Z 22023KT 9999 BKN020 BKN041 11/09 Q1008
  • 240920Z 23023KT 9999 BKN020 11/09 Q1009
  • 240850Z 22022KT 9999 BKN021 10/08 Q1009
  • 240820Z 23020KT 9999 FEW005 BKN018 11/09 Q1010

TAF TAF EGMC
Valido dal 24 a 09 ore il 24 a 18 ore UTC


240804Z 2409/2418 22020G32KT 9999 BKN012
TEMPO 2409/2416 4000 RA BKN008
PROB30
TEMPO 2409/2416 SCT012
BECMG 2416/2418 SCT015



MetMap, La meteo Aeronautica in un colpo d'occhio ! - Copyright ORBIFLY Dicembre 2007 - Disclaimer

ORBIFLY MET'MAP TEAM :

Programmazione e sviluppo : Alexandra Zaïnal
Concezione : Baudouin d'Aumeries
Aiuto per la programmazione : Marc-Olivier Méhu
Supporto tecnico e logistico : Manuel Goepfert
Aiuto per la traduzione : Arnaldo La Scala

Contatto : metmap@orbifly.com




FONTI E CREDITI :

   NOAA